Thursday, February 11, 2016
00:28 UTC
  |  Log In   |  Register Free
Airport Search:

Modesto City-Co-Harry Sham Fld Airport
(KMOD)

FAA data valid effective Feb 4 2016 - Mar 31 2016 (unless otherwise noted).

 
 
 
 
 
 
 
 
 
 
 
 
 
 
Current Aviation Weather for KMOD

Weather Summary


The most recent METAR observation for MOD was updated at: 12:53 UTC
METAR for KMOD is not available. Closest METAR is for KSCK
KMOD  (most recent observation was updatred at 10:23 UTC)
102353Z 31006KT 10SM CLR 22/09 A3016 RMK AO2 SLP212 T02170094 10222 20144 56020

KSCK  (21.0 nm SE)   (most recent observation was updated at 10:23 UTC)
102355Z 34007KT 10SM CLR 19/12 A3017 RMK AO2 SLP215 T01940117 10211 20133 56018

KMER  (23.6 nm NW)   (most recent observation was updated at 10:23 UTC)
102345Z 33005KT 10SM SKC 23/10 A3017

TAF for KMOD is not available.
KSCK  (21.0 nm SE)   (most recent observation was updatred at 10:23 UTC)
102324Z 1100/1124 32006KT P6SM BKN250 FM110500 VRB03KT 4SM BR BKN250 TEMPO 1113/1117 1/2SM FG OVC001


KMER  (23.6 nm NW)   (most recent observation was updatred at 10:23 UTC)
102340Z 1100/1124 33006KT P6SM BKN250 FM110200 VRB03KT 4SM HZ BR BKN250 FM110800 00000KT 2SM BR SCT250 FM111700 VRB04KT 5SM HZ SCT250


KMCE  (29.3 nm NW)   (most recent observation was updatred at 10:23 UTC)
102340Z 1100/1124 33006KT P6SM BKN250 FM110200 VRB03KT 4SM HZ BR BKN250 FM110800 00000KT 2SM BR SCT250 FM111700 VRB04KT 5SM HZ SCT250
GlobalAir.com is loading additional information.
 Current Weather at MOD
72.0 F° (22.2 C°)

Northwest winds at 4.6 mph
Pressure:
30.17 in
Humidity:
46%
Wind:
Northwest at 4.6 mph
Dew Point:
50.0 F° (10.0 C°)
Visibility:
10.00 mi
MOD NOAA Radar




Find All Airport Services Find A Hotel Find A Rental Car Find A Golf Course Find A Restaurant $100 Hamburger



Airport Weather Forecast for KMOD

Translated METAR for KMOD (2353 UTC)
METAR:
KMOD 102353Z 31006KT 10SM CLR 22/09 A3016 RMK AO2 SLP212 T02170094 10222 20144 56020
Conditions at:
KMOD (Modesto City-Co-Harry Sham Fld, CA) observed 2353 UTC 10 February 2016
Temperature:
22°C (71.6°F)
Dewpoint:
9°C (48.2°F) [RH = 43.4]
Pressure:
30.16 inches Hg (1021.3 mb)
pressure at sea level is 212 in Hg
Winds:
from the NW (310 degrees) at 6.9 mph (6 knots: 3.1 m/s)
Visibility:
10 mile(s)
Ceiling:
at least 12,000 feet AGL
Clouds:
Clear below 12,000 feet AGL
Remarks:
site is automated and HAS a precipitation sensor

Translated TAF for KSCK (Stockton Metropolitan, CA) (2324 UTC)
TAF text:
KSCK 102324Z 1100/1124 32006KT P6SM BKN250
Forecast period:
Thursday Feb 11 2016 00:00 UTC - Thursday Feb 11 2016 24:00 UTC
Forecast type:
FROM: standard forecast or significant change
Winds:
from the NW (320 degrees) at 6.9 mph (6 knots: 3.1 m/s)
Visibility:
6 or more mile(s) (9.7+ km)
Ceiling:
25,000 feet AGL
Clouds:
Broken Cloud Cover at 25,000 feet AGL
Weather:
no significant weather observed at this time
TAF text:
FM110500 VRB03KT 4SM BR BKN250
Forecast period:
Thursday Feb 11 2016 05:00 UTC - Thursday Feb 11 2016 24:00 UTC
Forecast type:
FROM: standard forecast or significant change
Winds:
variable wind direction at 3.5 mph (3 knots: 1.5 m/s)
Visibility:
4 mile(s) (6.4 km)
Ceiling:
25,000 feet AGL
Clouds:
Broken Cloud Cover at 25,000 feet AGL
Weather:
Moderate Mist
TAF text:
1113/1117 1/2SM FG OVC001
Forecast period:
Friday Feb 12 2016 13:00 UTC - Friday Feb 12 2016 17:00 UTC
Forecast type:
FROM: standard forecast or significant change
Winds:
Visibility:
0.5 mile(s) (0.8 km)
Ceiling:
100 feet AGL
Clouds:
Overcast Skies at 100 feet AGL
Weather:
Moderate Fog
FBO's on the Field
FBO Company Facility Photos Services Transportation Aviation Fuel Prices: Prices include tax
Catering Weather Repair Courtesy Rental Type 100LL JetA JetA+ MOGAS 8087
 
Sky Trek Aviation

This FBO has not yet been rated
FS:Avfuel
Last Updated: Jan-20
Login to update fuel prices
SS:
Contact Sky Trek AviationMore FBO Information
 
Add another FBO Facility Photos Catering Weather Repair Courtesy Rental Type 100LL JetA JetA+ MOGAS 8087
Services Transportation Aviation Fuel Prices: Prices include tax


model-print
model-print
model-print
model-print